Time;durP1;ratioP1;P1;durP2;ratioP2;P2;SDS_P1;SDS_P2;PMS_P1;PMS_P2;Temp;Humidity;BMP_temperature;BMP_pressure;BME280_temperature;BME280_humidity;BME280_pressure;Samples;Min_cycle;Max_cycle;Signal;HPM_P1;HPM_P2
2022/07/29 00:01:52;;;;;;;1.90;1.17;;;;;;;;;;5099745;28;20200;-81
2022/07/29 00:04:18;;;;;;;1.53;1.03;;;;;;;;;;5099483;28;20169;-81
2022/07/29 00:06:44;;;;;;;1.33;1.20;;;;;;;;;;5098594;28;20196;-81
2022/07/29 00:09:10;;;;;;;2.77;1.30;;;;;;;;;;5098850;28;20176;-81
2022/07/29 00:11:36;;;;;;;1.23;1.13;;;;;;;;;;5098831;28;20180;-81
2022/07/29 00:14:02;;;;;;;1.93;1.20;;;;;;;;;;5100251;28;20222;-81
2022/07/29 00:16:28;;;;;;;1.50;1.20;;;;;;;;;;5099527;28;20208;-81
2022/07/29 00:18:54;;;;;;;3.13;1.27;;;;;;;;;;5099424;28;20178;-82
2022/07/29 00:21:20;;;;;;;3.03;1.50;;;;;;;;;;5099917;28;20203;-81
2022/07/29 00:23:46;;;;;;;1.70;1.37;;;;;;;;;;5099992;28;20233;-81
2022/07/29 00:26:12;;;;;;;1.83;1.30;;;;;;;;;;5099486;28;20192;-81
2022/07/29 00:28:38;;;;;;;2.10;1.30;;;;;;;;;;5098218;28;20276;-81
2022/07/29 00:31:04;;;;;;;2.03;1.50;;;;;;;;;;5099534;28;20172;-82
2022/07/29 00:33:30;;;;;;;1.80;1.40;;;;;;;;;;5099226;28;20188;-82
2022/07/29 00:35:56;;;;;;;2.90;1.37;;;;;;;;;;5098878;28;20200;-82
2022/07/29 00:38:22;;;;;;;2.37;1.33;;;;;;;;;;5098742;28;20192;-81
2022/07/29 00:40:48;;;;;;;2.90;1.30;;;;;;;;;;5097366;28;20700;-82
2022/07/29 00:43:15;;;;;;;2.90;1.33;;;16.40;99.90;;;;;;5097681;28;20176;-82
2022/07/29 00:45:41;;;;;;;1.40;1.30;;;;;;;;;;5099337;28;20601;-82
2022/07/29 00:48:08;;;;;;;3.80;1.50;;;;;;;;;;5098886;28;20538;-81
2022/07/29 00:50:35;;;;;;;2.37;1.20;;;16.30;99.90;;;;;;5097311;28;20226;-82
2022/07/29 00:53:02;;;;;;;1.83;1.23;;;16.20;99.90;;;;;;5099201;28;20257;-82
2022/07/29 00:55:29;;;;;;;1.50;1.10;;;;;;;;;;5097377;28;20196;-82
2022/07/29 00:57:55;;;;;;;2.07;0.93;;;;;;;;;;5098563;28;20179;-81
2022/07/29 01:00:24;;;;;;;2.50;1.10;;;16.00;99.90;;;;;;5098495;28;20234;-82
2022/07/29 01:02:50;;;;;;;5.63;1.10;;;15.90;99.90;;;;;;5097962;28;20211;-82
2022/07/29 01:05:18;;;;;;;2.10;1.40;;;;;;;;;;5099161;28;20225;-82
2022/07/29 01:07:45;;;;;;;1.60;1.40;;;15.80;99.90;;;;;;5098929;28;20168;-83
2022/07/29 01:10:13;;;;;;;1.50;1.27;;;15.80;99.90;;;;;;5102809;28;20210;-82
2022/07/29 01:12:39;;;;;;;1.93;1.20;;;;;;;;;;5106322;28;20172;-81
2022/07/29 01:15:07;;;;;;;1.67;1.40;;;15.70;99.90;;;;;;5100999;28;20176;-81
2022/07/29 01:17:39;;;;;;;2.87;1.20;;;15.70;99.90;;;;;;5098277;28;20176;-82
2022/07/29 01:20:24;;;;;;;1.37;1.27;;;15.70;99.90;;;;;;5097435;28;20191;-82
2022/07/29 01:23:21;;;;;;;2.13;1.40;;;15.70;99.90;;;;;;5096936;28;20653;-81
2022/07/29 01:26:08;;;;;;;7.13;1.60;;;15.60;99.90;;;;;;5098500;28;20196;-82
2022/07/29 01:28:59;;;;;;;2.37;1.40;;;15.60;99.90;;;;;;5098257;28;20230;-82
2022/07/29 01:31:38;;;;;;;2.73;1.77;;;15.60;99.90;;;;;;5097978;28;20165;-82
2022/07/29 01:34:07;;;;;;;2.00;1.80;;;15.80;99.90;;;;;;5098652;28;20176;-82
2022/07/29 01:36:46;;;;;;;1.60;1.50;;;15.60;99.90;;;;;;5098656;28;20193;-82
2022/07/29 01:39:36;;;;;;;1.87;1.60;;;15.50;99.90;;;;;;5097395;28;20195;-82
2022/07/29 01:42:18;;;;;;;1.87;1.60;;;15.80;99.90;;;;;;5097504;28;20165;-82
2022/07/29 01:45:22;;;;;;;2.10;1.60;;;15.60;99.90;;;;;;5097686;28;20161;-82
2022/07/29 01:48:10;;;;;;;2.20;1.70;;;15.60;99.90;;;;;;5058816;28;20181;-82
2022/07/29 01:50:49;;;;;;;5.43;2.00;;;15.50;99.90;;;;;;5098966;28;20157;-82
2022/07/29 01:53:23;;;;;;;2.10;1.70;;;15.50;99.90;;;;;;5097093;28;20168;-81
2022/07/29 01:55:50;;;;;;;2.73;1.53;;;15.40;99.90;;;;;;5098491;28;20279;-82
2022/07/29 01:58:19;;;;;;;4.10;1.80;;;15.50;99.90;;;;;;5096699;28;20172;-82
2022/07/29 02:00:45;;;;;;;3.10;1.70;;;15.40;99.90;;;;;;5096791;28;20273;-82
2022/07/29 02:03:14;;;;;;;3.03;2.00;;;15.30;99.90;;;;;;5097748;28;20202;-82
2022/07/29 02:05:43;;;;;;;2.20;2.00;;;15.40;99.90;;;;;;5098544;28;20189;-82
2022/07/29 02:08:11;;;;;;;2.67;2.27;;;15.40;99.90;;;;;;5097264;28;20213;-82
2022/07/29 02:10:40;;;;;;;3.27;2.03;;;15.40;99.90;;;;;;5098039;28;20527;-82
2022/07/29 02:13:06;;;;;;;2.00;1.73;;;15.40;99.90;;;;;;5098166;28;20256;-82
2022/07/29 02:15:34;;;;;;;2.17;1.93;;;15.20;99.90;;;;;;5098019;28;20242;-81
2022/07/29 02:18:07;;;;;;;4.67;1.83;;;15.40;99.90;;;;;;5098063;28;20176;-82
2022/07/29 02:20:34;;;;;;;2.80;1.60;;;15.30;99.90;;;;;;5096666;28;20232;-82
2022/07/29 02:23:02;;;;;;;3.17;2.00;;;15.30;99.90;;;;;;5098456;28;20630;-82
2022/07/29 02:25:28;;;;;;;3.57;2.40;;;15.50;99.90;;;;;;5097349;28;20194;-82
2022/07/29 02:27:56;;;;;;;2.57;2.07;;;15.30;99.90;;;;;;5097862;28;20173;-82
2022/07/29 02:30:23;;;;;;;2.90;2.03;;;15.30;99.90;;;;;;5097911;28;20170;-82
2022/07/29 02:32:50;;;;;;;2.30;1.73;;;15.40;99.90;;;;;;5098319;28;20169;-82
2022/07/29 02:35:16;;;;;;;4.00;2.00;;;15.50;99.90;;;;;;5096733;28;20180;-82
2022/07/29 02:37:45;;;;;;;1.97;1.80;;;15.20;99.90;;;;;;5097972;28;20181;-82
2022/07/29 02:40:14;;;;;;;3.30;2.20;;;15.40;99.90;;;;;;5096827;28;20214;-82
2022/07/29 02:42:42;;;;;;;2.83;1.83;;;15.30;99.90;;;;;;5096614;28;20755;-83
2022/07/29 02:45:08;;;;;;;2.37;1.80;;;15.40;99.90;;;;;;5100915;28;20173;-82
2022/07/29 02:47:42;;;;;;;2.47;1.50;;;15.30;99.90;;;;;;5101034;28;20165;-81
2022/07/29 02:50:33;;;;;;;1.70;1.40;;;15.20;99.90;;;;;;5097724;28;20527;-84
2022/07/29 02:53:07;;;;;;;1.80;1.70;;;15.20;99.90;;;;;;5097394;28;20611;-82
2022/07/29 02:55:40;;;;;;;2.30;1.60;;;15.20;99.90;;;;;;5096286;28;20600;-82
2022/07/29 02:58:11;;;;;;;2.00;1.37;;;15.30;99.90;;;;;;5096362;28;20176;-83
2022/07/29 03:00:39;;;;;;;2.10;1.90;;;15.30;99.90;;;;;;5097660;28;20684;-82
2022/07/29 03:03:12;;;;;;;2.00;1.77;;;15.20;99.90;;;;;;5096757;28;20180;-82
2022/07/29 03:05:39;;;;;;;5.57;1.77;;;15.40;99.90;;;;;;5095981;28;20310;-82
2022/07/29 03:08:08;;;;;;;1.90;1.60;;;15.00;99.90;;;;;;5097881;28;20179;-82
2022/07/29 03:10:34;;;;;;;2.37;1.90;;;15.20;99.90;;;;;;5096401;28;20181;-82
2022/07/29 03:13:00;;;;;;;1.60;1.50;;;14.90;99.90;;;;;;5099003;28;20184;-82
2022/07/29 03:15:27;;;;;;;1.70;1.60;;;15.20;99.90;;;;;;5101715;28;20233;-83
2022/07/29 03:17:55;;;;;;;2.07;1.77;;;;;;;;;;5101487;28;20187;-82
2022/07/29 03:20:21;;;;;;;2.00;1.80;;;15.20;99.90;;;;;;5101527;28;20201;-82
2022/07/29 03:22:46;;;;;;;2.20;2.00;;;15.20;99.90;;;;;;5099808;28;20187;-82
2022/07/29 03:25:17;;;;;;;2.03;1.53;;;15.10;99.90;;;;;;5100758;28;20180;-81
2022/07/29 03:27:43;;;;;;;2.20;1.73;;;;;;;;;;5100645;28;20261;-81
2022/07/29 03:30:10;;;;;;;2.40;2.00;;;15.30;99.90;;;;;;5101048;28;20180;-82
2022/07/29 03:32:37;;;;;;;2.20;1.87;;;14.90;99.90;;;;;;5099924;28;20203;-82
2022/07/29 03:35:04;;;;;;;2.10;1.73;;;15.10;99.90;;;;;;5100497;28;20179;-82
2022/07/29 03:37:30;;;;;;;1.70;1.60;;;14.90;99.90;;;;;;5099164;28;20209;-82
2022/07/29 03:39:57;;;;;;;1.70;1.60;;;15.10;99.90;;;;;;5099208;28;20222;-82
2022/07/29 03:42:26;;;;;;;2.63;1.80;;;15.10;99.90;;;;;;5099548;28;20266;-82
2022/07/29 03:44:53;;;;;;;2.10;1.90;;;15.10;99.90;;;;;;5100275;28;20179;-82
2022/07/29 03:47:25;;;;;;;2.13;1.80;;;15.00;99.90;;;;;;5099925;28;20208;-82
2022/07/29 03:49:56;;;;;;;2.40;1.80;;;15.10;99.90;;;;;;5101098;28;20180;-82
2022/07/29 03:52:23;;;;;;;3.10;2.17;;;;;;;;;;5100960;28;20180;-82
2022/07/29 03:54:48;;;;;;;2.20;1.90;;;15.00;99.90;;;;;;5101144;28;20179;-82
2022/07/29 03:57:16;;;;;;;2.67;1.90;;;14.80;99.90;;;;;;5099058;28;20193;-82
2022/07/29 03:59:42;;;;;;;3.13;1.90;;;;;;;;;;5101059;28;20175;-82
2022/07/29 04:02:11;;;;;;;2.40;2.20;;;14.90;99.90;;;;;;5099400;28;20597;-82
2022/07/29 04:04:37;;;;;;;2.90;2.00;;;14.90;99.90;;;;;;5100729;28;20222;-82
2022/07/29 04:07:03;;;;;;;2.93;2.23;;;;;;;;;;5098813;28;20600;-80
2022/07/29 04:09:29;;;;;;;2.50;2.17;;;14.90;99.90;;;;;;5100857;28;20172;-82
2022/07/29 04:11:54;;;;;;;2.60;2.33;;;15.10;99.90;;;;;;5101556;28;20571;-82
2022/07/29 04:14:20;;;;;;;2.93;2.33;;;;;;;;;;5100533;28;20180;-82
2022/07/29 04:16:47;;;;;;;3.90;2.03;;;14.90;99.90;;;;;;5098868;28;20211;-82
2022/07/29 04:19:13;;;;;;;3.70;2.27;;;;;;;;;;5102229;28;20185;-82
2022/07/29 04:21:40;;;;;;;2.30;2.10;;;15.10;99.90;;;;;;5102691;28;20207;-82
2022/07/29 04:24:06;;;;;;;2.23;2.03;;;14.60;99.90;;;;;;5100307;28;20175;-82
2022/07/29 04:26:33;;;;;;;3.93;2.17;;;15.10;99.90;;;;;;5098688;28;20593;-82
2022/07/29 04:28:59;;;;;;;5.30;2.37;;;14.60;99.90;;;;;;5098988;28;20318;-82
2022/07/29 04:31:25;;;;;;;3.20;2.33;;;;;;;;;;5098938;28;20181;-82
2022/07/29 04:33:51;;;;;;;2.73;2.17;;;15.10;99.90;;;;;;5098932;28;20185;-82
2022/07/29 04:36:17;;;;;;;2.43;2.07;;;14.80;99.90;;;;;;5098885;28;20215;-82
2022/07/29 04:38:43;;;;;;;2.90;1.83;;;14.70;99.90;;;;;;5099868;28;20279;-82
2022/07/29 04:41:08;;;;;;;2.57;2.20;;;14.90;99.90;;;;;;5099946;28;20284;-82
2022/07/29 04:43:35;;;;;;;2.13;1.83;;;15.00;99.90;;;;;;5099707;28;20196;-82
2022/07/29 04:46:02;;;;;;;1.83;1.73;;;15.00;99.90;;;;;;5100469;28;20272;-82
2022/07/29 04:48:28;;;;;;;4.13;1.60;;;15.00;99.90;;;;;;5098726;28;20180;-81
2022/07/29 04:50:54;;;;;;;3.60;1.83;;;15.10;99.90;;;;;;5100353;28;20266;-80
2022/07/29 04:53:20;;;;;;;6.50;1.80;;;15.30;99.90;;;;;;5099004;28;20184;-81
2022/07/29 04:55:46;;;;;;;2.57;2.23;;;15.30;99.90;;;;;;5099072;28;20200;-81
2022/07/29 04:58:12;;;;;;;2.10;1.77;;;;;;;;;;5099827;28;20705;-81
2022/07/29 05:00:38;;;;;;;4.10;1.90;;;14.90;99.90;;;;;;5099708;28;20563;-81
2022/07/29 05:03:04;;;;;;;2.63;1.57;;;15.10;99.90;;;;;;5100192;28;20200;-81
2022/07/29 05:05:30;;;;;;;2.63;2.20;;;15.20;99.90;;;;;;5099472;28;20215;-81
2022/07/29 05:07:56;;;;;;;6.40;1.87;;;;;;;;;;5101772;28;20496;-80
2022/07/29 05:10:22;;;;;;;2.00;1.80;;;15.50;99.90;;;;;;5099981;28;20183;-80
2022/07/29 05:12:48;;;;;;;2.20;1.63;;;15.30;99.90;;;;;;5099772;28;20184;-80
2022/07/29 05:15:14;;;;;;;2.53;1.67;;;;;;;;;;5100063;28;20184;-80
2022/07/29 05:17:40;;;;;;;1.63;1.53;;;15.40;99.90;;;;;;5100835;28;20229;-80
2022/07/29 05:20:07;;;;;;;2.20;1.80;;;15.50;99.90;;;;;;5100184;28;20195;-80
2022/07/29 05:22:32;;;;;;;3.00;1.90;;;15.50;99.90;;;;;;5098864;28;20173;-80
2022/07/29 05:24:58;;;;;;;3.10;1.80;;;15.60;99.90;;;;;;5096856;28;20264;-80
2022/07/29 05:27:24;;;;;;;7.90;2.20;;;15.60;99.90;;;;;;5097386;28;20219;-80
2022/07/29 05:29:49;;;;;;;3.67;1.63;;;15.60;99.90;;;;;;5097124;28;20176;-80
2022/07/29 05:32:15;;;;;;;2.53;1.90;;;15.70;99.90;;;;;;5096051;28;20177;-80
2022/07/29 05:34:41;;;;;;;2.33;1.73;;;15.80;99.90;;;;;;5096686;28;20181;-80
2022/07/29 05:37:07;;;;;;;2.37;1.90;;;15.80;99.90;;;;;;5096167;28;20200;-80
2022/07/29 05:39:33;;;;;;;4.93;2.20;;;;;;;;;;5096096;28;20195;-80
2022/07/29 05:41:59;;;;;;;1.90;1.67;;;16.00;99.90;;;;;;5097741;28;20688;-80
2022/07/29 05:44:24;;;;;;;2.40;1.87;;;16.00;99.90;;;;;;5095692;28;20177;-80
2022/07/29 05:46:51;;;;;;;3.03;1.63;;;;;;;;;;5097860;28;20202;-81
2022/07/29 05:49:16;;;;;;;3.77;2.13;;;16.10;99.90;;;;;;5096683;28;20172;-80
2022/07/29 05:51:42;;;;;;;2.10;1.90;;;16.20;99.90;;;;;;5095467;28;20234;-80
2022/07/29 05:54:08;;;;;;;2.87;1.73;;;;;;;;;;5097515;28;20185;-80
2022/07/29 05:56:36;;;;;;;2.07;1.77;;;16.40;99.90;;;;;;5099163;28;20204;-82
2022/07/29 05:59:02;;;;;;;6.20;1.87;;;16.50;99.90;;;;;;5095237;28;20184;-82
2022/07/29 06:01:28;;;;;;;3.77;2.10;;;16.50;99.90;;;;;;5095813;28;20685;-81
2022/07/29 06:03:54;;;;;;;2.63;1.90;;;16.60;99.90;;;;;;5095798;28;20200;-82
2022/07/29 06:06:20;;;;;;;3.73;1.60;;;;;;;;;;5096285;28;20197;-82
2022/07/29 06:08:46;;;;;;;1.90;1.70;;;16.80;99.90;;;;;;5095515;28;20634;-82
2022/07/29 06:11:12;;;;;;;2.03;1.53;;;;;;;;;;5097060;28;20186;-82
2022/07/29 06:13:37;;;;;;;2.00;1.80;;;17.00;99.90;;;;;;5095841;28;20188;-81
2022/07/29 06:16:03;;;;;;;2.40;1.50;;;17.30;99.90;;;;;;5095902;28;20598;-82
2022/07/29 06:18:29;;;;;;;2.27;1.37;;;17.40;99.90;;;;;;5095539;28;20189;-82
2022/07/29 06:20:55;;;;;;;3.50;1.80;;;17.60;99.90;;;;;;5096980;28;20198;-81
2022/07/29 06:23:21;;;;;;;2.13;1.87;;;17.80;99.90;;;;;;5097729;28;20539;-82
2022/07/29 06:25:46;;;;;;;2.67;1.37;;;18.10;99.90;;;;;;5095422;28;20564;-82
2022/07/29 06:28:12;;;;;;;4.47;1.83;;;18.10;99.90;;;;;;5095817;28;20213;-82
2022/07/29 06:30:39;;;;;;;1.60;1.50;;;18.40;99.90;;;;;;5095393;28;20186;-82
2022/07/29 06:33:05;;;;;;;1.83;1.70;;;18.40;99.90;;;;;;5097028;28;20184;-82
2022/07/29 06:35:34;;;;;;;2.53;1.93;;;18.60;99.90;;;;;;5096963;28;20203;-82
2022/07/29 06:38:00;;;;;;;2.30;1.60;;;18.60;99.90;;;;;;5096741;28;20204;-83
2022/07/29 06:43:10;;;;;;;3.80;1.57;;;18.90;99.90;;;;;;5097050;28;20164;-83
2022/07/29 06:45:36;;;;;;;4.23;1.50;;;19.00;99.90;;;;;;5096070;28;20285;-83
2022/07/29 06:48:02;;;;;;;2.43;1.57;;;;;;;;;;5096935;28;20187;-83
2022/07/29 06:50:28;;;;;;;3.90;2.10;;;19.10;99.90;;;;;;5100579;28;20188;-83
2022/07/29 06:52:54;;;;;;;3.77;1.60;;;19.20;99.90;;;;;;5102331;28;20190;-83
2022/07/29 06:55:19;;;;;;;4.03;1.60;;;19.30;99.90;;;;;;5100422;28;20676;-83
2022/07/29 06:57:46;;;;;;;3.00;1.60;;;19.30;99.90;;;;;;5101838;28;20213;-84
2022/07/29 07:00:13;;;;;;;1.40;1.30;;;19.40;99.90;;;;;;5099822;28;20729;-83
2022/07/29 07:02:38;;;;;;;2.07;1.70;;;19.40;99.90;;;;;;5101384;28;20201;-84
2022/07/29 07:05:05;;;;;;;2.93;1.70;;;19.50;99.90;;;;;;5100834;28;20174;-83
2022/07/29 07:07:31;;;;;;;2.07;1.60;;;19.50;99.90;;;;;;5099695;28;20179;-82
2022/07/29 07:09:57;;;;;;;2.40;2.10;;;19.50;99.90;;;;;;5101615;28;20189;-82
2022/07/29 07:12:22;;;;;;;4.57;1.93;;;19.60;99.90;;;;;;5099826;28;20542;-83
2022/07/29 07:14:48;;;;;;;1.90;1.70;;;19.60;99.90;;;;;;5101349;28;20185;-82
2022/07/29 07:17:14;;;;;;;1.63;1.30;;;19.60;99.90;;;;;;5101083;28;20197;-82
2022/07/29 07:19:40;;;;;;;1.97;1.87;;;;;;;;;;5101071;28;20540;-83
2022/07/29 07:22:05;;;;;;;2.63;2.00;;;19.60;99.90;;;;;;5102143;28;20664;-83
2022/07/29 07:24:31;;;;;;;2.30;1.87;;;19.70;99.90;;;;;;5103156;28;20213;-83
2022/07/29 07:26:57;;;;;;;5.07;1.80;;;19.70;99.90;;;;;;5100027;28;20261;-82
2022/07/29 07:29:23;;;;;;;2.67;1.80;;;19.80;99.90;;;;;;5101359;28;20227;-83
2022/07/29 07:31:48;;;;;;;1.70;1.50;;;19.80;99.90;;;;;;5100913;28;20179;-83
2022/07/29 07:34:14;;;;;;;2.03;1.70;;;19.80;99.90;;;;;;5101560;28;20661;-83
2022/07/29 07:36:40;;;;;;;4.87;1.90;;;19.80;99.90;;;;;;5101508;28;20279;-83
2022/07/29 07:39:05;;;;;;;1.73;1.63;;;19.80;99.90;;;;;;5100887;28;20198;-83
2022/07/29 07:41:31;;;;;;;2.53;1.73;;;19.70;99.90;;;;;;5103580;28;20634;-83
2022/07/29 07:43:57;;;;;;;3.20;2.00;;;19.80;99.90;;;;;;5099193;28;20193;-83
2022/07/29 07:46:23;;;;;;;3.40;1.73;;;19.80;99.90;;;;;;5100212;28;20197;-83
2022/07/29 07:48:48;;;;;;;2.47;1.60;;;19.80;99.90;;;;;;5099683;28;20256;-82
2022/07/29 07:51:14;;;;;;;2.70;1.87;;;19.80;99.90;;;;;;5099295;28;20195;-83
2022/07/29 07:53:40;;;;;;;5.07;1.60;;;19.80;99.90;;;;;;5100228;28;20202;-83
2022/07/29 07:56:06;;;;;;;4.47;1.97;;;19.90;99.90;;;;;;5099924;28;20217;-83
2022/07/29 07:58:34;;;;;;;1.60;1.50;;;19.90;99.90;;;;;;5098399;28;20208;-82
2022/07/29 08:01:00;;;;;;;1.80;1.70;;;19.80;99.90;;;;;;5098868;28;20206;-82
2022/07/29 08:03:25;;;;;;;1.67;1.57;;;19.80;99.90;;;;;;5098731;28;20193;-83
2022/07/29 08:05:51;;;;;;;3.97;1.93;;;19.80;99.90;;;;;;5100275;28;20195;-83
2022/07/29 08:08:17;;;;;;;4.83;1.90;;;19.80;99.90;;;;;;5099200;28;20174;-83
2022/07/29 08:10:52;;;;;;;2.67;1.67;;;19.80;99.90;;;;;;5100791;28;20171;-83
2022/07/29 08:13:19;;;;;;;2.60;1.60;;;20.00;99.90;;;;;;5100204;28;20184;-83
2022/07/29 08:15:45;;;;;;;1.83;1.60;;;20.20;99.90;;;;;;5101366;28;20199;-82
2022/07/29 08:18:12;;;;;;;3.47;1.80;;;20.10;99.90;;;;;;5100793;28;20580;-83
2022/07/29 08:20:38;;;;;;;2.23;2.03;;;20.20;99.90;;;;;;5101139;28;20197;-83
2022/07/29 08:23:08;;;;;;;3.03;1.80;;;20.20;99.90;;;;;;5099741;28;20176;-83
2022/07/29 08:25:35;;;;;;;2.03;1.83;;;20.20;99.90;;;;;;5098989;28;20211;-83
2022/07/29 08:28:01;;;;;;;2.27;2.07;;;20.20;99.90;;;;;;5100588;28;20525;-83
2022/07/29 08:30:27;;;;;;;1.67;1.57;;;20.10;99.90;;;;;;5101992;28;20656;-83
2022/07/29 08:32:53;;;;;;;3.60;2.17;;;20.00;99.90;;;;;;5099333;28;20182;-82
2022/07/29 08:35:23;;;;;;;3.00;1.70;;;20.00;99.90;;;;;;5100234;28;20178;-82
2022/07/29 08:37:49;;;;;;;3.07;2.03;;;20.00;99.90;;;;;;5100250;28;20171;-82
2022/07/29 08:40:14;;;;;;;3.03;2.00;;;20.00;99.90;;;;;;5100177;28;20206;-83
2022/07/29 08:42:40;;;;;;;2.77;2.47;;;20.10;99.90;;;;;;5101752;28;20253;-83
2022/07/29 08:45:06;;;;;;;3.10;2.23;;;20.40;99.90;;;;;;5100610;28;20206;-82
2022/07/29 08:47:36;;;;;;;2.10;1.90;;;20.30;99.90;;;;;;5100347;28;20166;-83
2022/07/29 08:50:02;;;;;;;4.70;2.27;;;20.50;99.90;;;;;;5098772;28;20316;-82
2022/07/29 08:52:32;;;;;;;2.60;1.73;;;20.60;99.90;;;;;;5100393;28;20538;-83
2022/07/29 08:54:58;;;;;;;4.27;2.10;;;20.70;99.90;;;;;;5099952;28;20175;-82
2022/07/29 08:57:25;;;;;;;3.50;2.00;;;20.80;99.90;;;;;;5099365;28;20202;-83
2022/07/29 08:59:52;;;;;;;4.83;2.53;;;20.80;99.90;;;;;;5099047;28;20637;-82
2022/07/29 09:02:22;;;;;;;2.17;1.97;;;20.90;99.90;;;;;;5100103;28;20224;-83
2022/07/29 09:04:49;;;;;;;2.00;1.70;;;21.00;99.90;;;;;;5098921;28;20183;-83
2022/07/29 09:07:19;;;;;;;3.43;2.40;;;21.10;99.90;;;;;;5099194;28;20192;-83
2022/07/29 09:09:45;;;;;;;2.23;2.03;;;21.10;99.90;;;;;;5099144;28;20631;-82
2022/07/29 09:12:11;;;;;;;3.67;2.07;;;21.30;99.90;;;;;;5099715;28;20218;-83
2022/07/29 09:14:38;;;;;;;2.43;1.90;;;21.50;99.90;;;;;;5103593;28;20180;-82
2022/07/29 09:17:04;;;;;;;2.03;1.90;;;21.60;99.90;;;;;;5103548;28;20188;-83
2022/07/29 09:19:34;;;;;;;1.93;1.73;;;21.80;99.90;;;;;;5100576;28;20176;-83
2022/07/29 09:22:04;;;;;;;3.03;2.20;;;22.40;99.90;;;;;;5099414;28;20199;-82
2022/07/29 09:24:48;;;;;;;2.47;2.07;;;22.70;99.90;;;;;;5100654;28;20179;-82
2022/07/29 09:27:28;;;;;;;2.53;1.90;;;22.70;99.90;;;;;;5098574;28;20196;-82
2022/07/29 09:30:06;;;;;;;3.23;2.10;;;22.50;99.90;;;;;;5098897;28;20192;-82
2022/07/29 09:32:53;;;;;;;3.50;2.00;;;22.60;99.90;;;;;;5099274;28;20236;-82
2022/07/29 09:35:24;;;;;;;2.43;2.07;;;22.90;99.90;;;;;;5099193;28;20157;-83
2022/07/29 09:37:50;;;;;;;2.33;2.00;;;23.00;99.90;;;;;;5098106;28;20173;-82
2022/07/29 09:40:19;;;;;;;3.93;1.87;;;23.50;99.90;;;;;;5097283;28;20571;-83
2022/07/29 09:42:46;;;;;;;2.13;1.80;;;24.00;99.90;;;;;;5098551;28;20166;-82
2022/07/29 09:45:25;;;;;;;2.13;1.90;;;24.30;99.90;;;;;;5097496;28;20174;-82
2022/07/29 09:47:51;;;;;;;2.20;1.80;;;24.30;99.90;;;;;;5097156;28;20207;-82
2022/07/29 09:50:19;;;;;;;3.33;1.90;;;24.60;99.90;;;;;;5097609;28;20172;-81
2022/07/29 09:52:53;;;;;;;2.10;1.80;;;24.40;99.90;;;;;;5096985;28;20173;-82
2022/07/29 09:55:19;;;;;;;2.60;2.27;;;24.10;99.90;;;;;;5096026;28;20171;-82
2022/07/29 09:57:46;;;;;;;2.90;2.03;;;23.70;99.90;;;;;;5096754;28;20258;-82
2022/07/29 10:00:21;;;;;;;6.57;2.03;;;23.40;99.90;;;;;;5097442;28;20200;-82
2022/07/29 10:02:47;;;;;;;3.40;2.30;;;23.20;99.90;;;;;;5096060;28;20173;-81
2022/07/29 10:05:24;;;;;;;3.40;1.43;;;23.10;99.90;;;;;;5097053;28;20198;-82
2022/07/29 10:07:52;;;;;;;3.30;1.70;;;23.10;99.90;;;;;;5095350;28;20180;-81
2022/07/29 10:10:20;;;;;;;4.53;1.97;;;23.30;99.90;;;;;;5096203;28;20324;-82
2022/07/29 10:12:50;;;;;;;4.63;2.00;;;23.30;99.90;;;;;;5095405;28;20173;-81
2022/07/29 10:15:16;;;;;;;2.00;1.80;;;23.70;99.90;;;;;;5097201;28;20182;-81
2022/07/29 10:17:42;;;;;;;1.80;1.60;;;23.70;99.90;;;;;;5096907;28;20286;-82
2022/07/29 10:20:09;;;;;;;3.33;1.70;;;24.30;99.90;;;;;;5097627;28;20178;-81
2022/07/29 10:22:35;;;;;;;2.00;1.80;;;25.00;99.90;;;;;;5096014;28;20191;-82
2022/07/29 10:25:01;;;;;;;5.00;1.63;;;25.20;99.90;;;;;;5099196;28;20179;-81
2022/07/29 10:27:27;;;;;;;4.67;2.20;;;25.20;99.90;;;;;;5099139;28;20754;-83
2022/07/29 10:29:54;;;;;;;3.07;1.70;;;25.10;99.90;;;;;;5098387;28;20210;-83
2022/07/29 10:32:48;;;;;;;2.53;1.53;;;25.00;99.90;;;;;;5099850;28;20186;-82
2022/07/29 10:35:18;;;;;;;3.07;1.43;;;24.50;99.90;;;;;;5099042;28;20268;-82
2022/07/29 10:38:02;;;;;;;1.70;1.40;;;24.40;99.90;;;;;;5097681;28;20161;-82
2022/07/29 10:43:44;;;;;;;2.93;1.50;;;24.00;99.90;;;;;;5099869;28;20181;-82
2022/07/29 10:46:11;;;;;;;1.53;1.30;;;24.20;99.90;;;;;;5102296;28;20192;-82
2022/07/29 10:49:08;;;;;;;1.40;1.30;;;24.60;99.90;;;;;;5099995;28;20551;-82
2022/07/29 10:51:59;;;;;;;2.53;1.13;;;25.10;99.90;;;;;;5098989;28;20209;-82
2022/07/29 10:54:53;;;;;;;3.20;1.30;;;25.10;99.90;;;;;;5098191;28;20165;-82
2022/07/29 10:57:29;;;;;;;2.00;1.30;;;24.90;99.90;;;;;;5097054;28;20249;-82
2022/07/29 11:00:04;;;;;;;2.60;1.50;;;24.80;99.90;;;;;;5097401;28;20182;-82
2022/07/29 11:02:35;;;;;;;1.50;1.20;;;24.70;99.90;;;;;;5100097;28;20186;-82
2022/07/29 11:05:08;;;;;;;3.60;1.40;;;24.60;99.90;;;;;;5101269;28;20231;-82
2022/07/29 11:07:35;;;;;;;1.60;1.50;;;24.50;99.90;;;;;;5100930;28;20260;-82
2022/07/29 11:10:16;;;;;;;2.47;1.60;;;24.30;99.90;;;;;;5100401;28;20172;-82
2022/07/29 11:12:42;;;;;;;4.07;1.50;;;24.10;99.90;;;;;;5100810;28;20173;-81
2022/07/29 11:15:16;;;;;;;3.10;1.30;;;23.70;99.90;;;;;;5100360;28;20173;-82
2022/07/29 11:17:56;;;;;;;2.60;1.80;;;23.70;99.90;;;;;;5100353;28;20153;-82
2022/07/29 11:20:32;;;;;;;1.60;1.50;;;23.40;99.90;;;;;;5099771;28;20620;-82
2022/07/29 11:22:58;;;;;;;4.60;1.60;;;23.20;99.90;;;;;;5099588;28;20196;-81
2022/07/29 11:25:24;;;;;;;1.67;1.43;;;22.70;99.90;;;;;;5099091;28;20198;-81
2022/07/29 11:27:54;;;;;;;1.97;1.87;;;22.70;99.90;;;;;;5100671;28;20165;-82
2022/07/29 11:30:20;;;;;;;2.07;1.47;;;22.50;99.90;;;;;;5099948;28;20174;-82
2022/07/29 11:32:46;;;;;;;2.20;1.63;;;22.40;99.90;;;;;;5100205;28;20503;-82
2022/07/29 11:35:17;;;;;;;2.63;1.80;;;22.20;99.90;;;;;;5102842;28;20211;-82
2022/07/29 11:37:43;;;;;;;1.97;1.47;;;22.20;99.90;;;;;;5104024;28;20186;-82
2022/07/29 11:40:11;;;;;;;3.00;1.33;;;22.20;99.90;;;;;;5103292;28;20189;-82
2022/07/29 11:42:38;;;;;;;1.40;1.30;;;22.10;99.90;;;;;;5103803;28;20202;-83
2022/07/29 11:45:18;;;;;;;1.97;1.73;;;21.90;99.90;;;;;;5102924;28;20169;-82
2022/07/29 11:47:52;;;;;;;2.90;1.50;;;21.90;99.90;;;;;;5102053;28;20176;-83
2022/07/29 11:50:37;;;;;;;3.17;1.67;;;21.90;99.90;;;;;;5104268;28;20156;-82
2022/07/29 11:53:11;;;;;;;1.87;1.40;;;21.90;99.90;;;;;;5101937;28;20197;-82
2022/07/29 11:55:39;;;;;;;2.83;1.53;;;21.90;99.90;;;;;;5102139;28;20607;-82
2022/07/29 11:58:05;;;;;;;3.60;1.40;;;21.80;99.90;;;;;;5105386;28;20256;-81
2022/07/29 12:00:37;;;;;;;1.57;1.47;;;21.70;99.90;;;;;;5101794;28;20188;-82
2022/07/29 12:03:05;;;;;;;2.17;1.60;;;21.70;99.90;;;;;;5101618;28;20169;-82
2022/07/29 12:05:35;;;;;;;3.40;1.70;;;21.60;99.90;;;;;;5100321;28;20207;-81
2022/07/29 12:08:06;;;;;;;1.77;1.67;;;21.60;99.90;;;;;;5101211;28;20182;-82
2022/07/29 12:10:32;;;;;;;2.13;1.70;;;21.60;99.90;;;;;;5100726;28;20184;-81
2022/07/29 12:12:58;;;;;;;3.10;1.97;;;21.60;99.90;;;;;;5101546;28;20273;-82
2022/07/29 12:15:25;;;;;;;2.33;1.60;;;;;;;;;;5103275;28;20188;-84
2022/07/29 12:17:51;;;;;;;4.17;1.73;;;21.50;99.90;;;;;;5103858;28;20181;-82
2022/07/29 12:20:44;;;;;;;1.93;1.40;;;21.50;99.90;;;;;;5099982;28;20668;-83
2022/07/29 12:23:12;;;;;;;3.47;2.13;;;21.40;99.90;;;;;;5095859;28;20187;-82
2022/07/29 12:25:40;;;;;;;3.03;2.10;;;21.30;99.90;;;;;;5101842;28;20203;-82
2022/07/29 12:28:08;;;;;;;1.80;1.60;;;21.30;99.90;;;;;;5099328;28;20179;-83
2022/07/29 12:30:39;;;;;;;2.97;1.60;;;21.20;99.90;;;;;;5101132;28;20254;-83
2022/07/29 12:33:12;;;;;;;1.70;1.60;;;21.00;99.90;;;;;;5098240;28;20591;-83
2022/07/29 12:35:38;;;;;;;2.33;1.90;;;21.00;99.90;;;;;;5098779;28;20242;-83
2022/07/29 12:38:04;;;;;;;1.83;1.73;;;21.00;99.90;;;;;;5098487;28;20186;-83
2022/07/29 12:40:30;;;;;;;2.87;1.87;;;20.90;99.90;;;;;;5098332;28;20252;-83
2022/07/29 12:43:17;;;;;;;4.13;1.80;;;21.00;99.90;;;;;;5099949;28;20534;-82
2022/07/29 12:45:45;;;;;;;2.93;1.83;;;21.00;99.90;;;;;;5098184;28;20195;-83
2022/07/29 12:48:12;;;;;;;4.90;2.07;;;21.10;99.90;;;;;;5100565;28;20530;-83
2022/07/29 12:50:53;;;;;;;3.37;1.63;;;21.10;99.90;;;;;;5099454;28;20186;-83
2022/07/29 12:53:19;;;;;;;3.17;1.97;;;21.10;99.90;;;;;;5100101;28;20196;-84
2022/07/29 12:55:54;;;;;;;10.73;2.03;;;21.30;99.90;;;;;;5101984;28;20194;-84
2022/07/29 12:58:37;;;;;;;1.77;1.60;;;21.30;99.90;;;;;;5100594;28;20269;-83
2022/07/29 13:01:14;;;;;;;3.53;2.33;;;21.30;99.90;;;;;;5097043;28;20196;-82
2022/07/29 13:04:04;;;;;;;3.47;1.90;;;21.40;99.90;;;;;;5098436;28;20536;-83
2022/07/29 13:06:38;;;;;;;3.50;1.93;;;21.60;99.90;;;;;;5100836;28;20191;-81
2022/07/29 13:09:18;;;;;;;1.77;1.67;;;21.70;99.90;;;;;;5101967;28;20171;-82
2022/07/29 13:11:52;;;;;;;2.23;1.43;;;22.20;99.90;;;;;;5098400;28;20239;-83
2022/07/29 13:14:35;;;;;;;2.93;1.50;;;22.40;99.90;;;;;;5098764;28;20642;-82
2022/07/29 13:17:10;;;;;;;2.33;1.70;;;22.70;99.90;;;;;;5098824;28;20198;-82